sensor_id;sensor_type;location;lat;lon;timestamp;temperature;humidity
59208;DHT22;44977;53.132;6.408;2023-04-23T00:04:03;8.80;99.90
59208;DHT22;44977;53.132;6.408;2023-04-23T00:09:05;8.80;99.90
59208;DHT22;44977;53.132;6.408;2023-04-23T00:14:06;8.80;99.90
59208;DHT22;44977;53.132;6.408;2023-04-23T00:19:07;8.70;99.90
59208;DHT22;44977;53.132;6.408;2023-04-23T00:24:08;8.70;99.90
59208;DHT22;44977;53.132;6.408;2023-04-23T00:29:09;8.70;99.90
59208;DHT22;44977;53.132;6.408;2023-04-23T00:34:09;8.60;99.90
59208;DHT22;44977;53.132;6.408;2023-04-23T00:39:10;8.60;99.90
59208;DHT22;44977;53.132;6.408;2023-04-23T00:44:11;8.50;99.90
59208;DHT22;44977;53.132;6.408;2023-04-23T00:49:13;8.50;99.90
59208;DHT22;44977;53.132;6.408;2023-04-23T00:54:13;8.50;99.90
59208;DHT22;44977;53.132;6.408;2023-04-23T00:59:14;8.50;99.90
59208;DHT22;44977;53.132;6.408;2023-04-23T01:04:16;8.40;99.90
59208;DHT22;44977;53.132;6.408;2023-04-23T01:09:17;8.40;99.90
59208;DHT22;44977;53.132;6.408;2023-04-23T01:14:18;8.40;99.90
59208;DHT22;44977;53.132;6.408;2023-04-23T01:19:19;8.30;99.90
59208;DHT22;44977;53.132;6.408;2023-04-23T01:24:20;8.30;99.90
59208;DHT22;44977;53.132;6.408;2023-04-23T01:29:21;8.20;99.90
59208;DHT22;44977;53.132;6.408;2023-04-23T01:34:21;8.20;99.90
59208;DHT22;44977;53.132;6.408;2023-04-23T01:39:22;8.20;99.90
59208;DHT22;44977;53.132;6.408;2023-04-23T01:44:23;8.20;99.90
59208;DHT22;44977;53.132;6.408;2023-04-23T01:49:24;8.20;99.90
59208;DHT22;44977;53.132;6.408;2023-04-23T01:54:25;8.10;99.90
59208;DHT22;44977;53.132;6.408;2023-04-23T01:59:25;8.10;99.90
59208;DHT22;44977;53.132;6.408;2023-04-23T02:04:28;8.10;99.90
59208;DHT22;44977;53.132;6.408;2023-04-23T02:09:29;8.10;99.90
59208;DHT22;44977;53.132;6.408;2023-04-23T02:14:30;8.00;99.90
59208;DHT22;44977;53.132;6.408;2023-04-23T02:19:30;8.00;99.90
59208;DHT22;44977;53.132;6.408;2023-04-23T02:24:33;8.00;99.90
59208;DHT22;44977;53.132;6.408;2023-04-23T02:29:34;7.90;99.90
59208;DHT22;44977;53.132;6.408;2023-04-23T02:34:36;7.90;99.90
59208;DHT22;44977;53.132;6.408;2023-04-23T02:39:37;7.90;99.90
59208;DHT22;44977;53.132;6.408;2023-04-23T02:44:40;7.90;99.90
59208;DHT22;44977;53.132;6.408;2023-04-23T02:49:41;7.90;99.90
59208;DHT22;44977;53.132;6.408;2023-04-23T02:54:42;7.90;99.90
59208;DHT22;44977;53.132;6.408;2023-04-23T02:59:42;7.90;99.90
59208;DHT22;44977;53.132;6.408;2023-04-23T03:04:43;7.90;99.90
59208;DHT22;44977;53.132;6.408;2023-04-23T03:09:44;7.90;99.90
59208;DHT22;44977;53.132;6.408;2023-04-23T03:14:45;7.90;99.90
59208;DHT22;44977;53.132;6.408;2023-04-23T03:19:45;7.90;99.90
59208;DHT22;44977;53.132;6.408;2023-04-23T03:24:46;7.90;99.90
59208;DHT22;44977;53.132;6.408;2023-04-23T03:29:47;7.90;99.90
59208;DHT22;44977;53.132;6.408;2023-04-23T03:34:47;7.90;99.90
59208;DHT22;44977;53.132;6.408;2023-04-23T03:39:48;7.90;99.90
59208;DHT22;44977;53.132;6.408;2023-04-23T03:44:49;7.90;99.90
59208;DHT22;44977;53.132;6.408;2023-04-23T03:49:49;7.90;99.90
59208;DHT22;44977;53.132;6.408;2023-04-23T03:54:50;7.90;99.90
59208;DHT22;44977;53.132;6.408;2023-04-23T03:59:51;8.00;99.90
59208;DHT22;44977;53.132;6.408;2023-04-23T04:04:51;8.00;99.90
59208;DHT22;44977;53.132;6.408;2023-04-23T04:09:54;8.00;99.90
59208;DHT22;44977;53.132;6.408;2023-04-23T04:14:54;8.00;99.90
59208;DHT22;44977;53.132;6.408;2023-04-23T04:19:55;8.10;99.90
59208;DHT22;44977;53.132;6.408;2023-04-23T04:24:56;8.10;99.90
59208;DHT22;44977;53.132;6.408;2023-04-23T04:29:57;8.10;99.90
59208;DHT22;44977;53.132;6.408;2023-04-23T04:34:58;8.10;99.90
59208;DHT22;44977;53.132;6.408;2023-04-23T04:39:58;8.10;99.90
59208;DHT22;44977;53.132;6.408;2023-04-23T04:45:00;8.10;99.90
59208;DHT22;44977;53.132;6.408;2023-04-23T04:50:02;8.10;99.90
59208;DHT22;44977;53.132;6.408;2023-04-23T04:55:03;8.10;99.90
59208;DHT22;44977;53.132;6.408;2023-04-23T05:00:23;8.20;99.90
59208;DHT22;44977;53.132;6.408;2023-04-23T05:05:25;8.20;99.90
59208;DHT22;44977;53.132;6.408;2023-04-23T05:10:27;8.20;99.90
59208;DHT22;44977;53.132;6.408;2023-04-23T05:15:28;8.20;99.90
59208;DHT22;44977;53.132;6.408;2023-04-23T05:20:29;8.20;99.90
59208;DHT22;44977;53.132;6.408;2023-04-23T05:25:30;8.20;99.90
59208;DHT22;44977;53.132;6.408;2023-04-23T05:30:31;8.20;99.90
59208;DHT22;44977;53.132;6.408;2023-04-23T05:35:31;8.20;99.90
59208;DHT22;44977;53.132;6.408;2023-04-23T05:40:32;8.20;99.90
59208;DHT22;44977;53.132;6.408;2023-04-23T05:45:33;8.20;99.90
59208;DHT22;44977;53.132;6.408;2023-04-23T05:50:34;8.20;99.90
59208;DHT22;44977;53.132;6.408;2023-04-23T05:55:34;8.30;99.90
59208;DHT22;44977;53.132;6.408;2023-04-23T06:00:35;8.30;99.90
59208;DHT22;44977;53.132;6.408;2023-04-23T06:05:36;8.40;99.90
59208;DHT22;44977;53.132;6.408;2023-04-23T06:10:37;8.40;99.90
59208;DHT22;44977;53.132;6.408;2023-04-23T06:15:38;8.50;99.90
59208;DHT22;44977;53.132;6.408;2023-04-23T06:20:38;8.70;99.90
59208;DHT22;44977;53.132;6.408;2023-04-23T06:25:39;8.80;99.90
59208;DHT22;44977;53.132;6.408;2023-04-23T06:30:40;8.90;99.90
59208;DHT22;44977;53.132;6.408;2023-04-23T06:35:41;9.10;99.90
59208;DHT22;44977;53.132;6.408;2023-04-23T06:40:41;9.20;99.90
59208;DHT22;44977;53.132;6.408;2023-04-23T06:45:42;9.30;99.90
59208;DHT22;44977;53.132;6.408;2023-04-23T06:50:43;9.40;99.90
59208;DHT22;44977;53.132;6.408;2023-04-23T06:55:44;9.60;99.90
59208;DHT22;44977;53.132;6.408;2023-04-23T07:00:45;9.70;99.90
59208;DHT22;44977;53.132;6.408;2023-04-23T07:05:45;9.90;99.90
59208;DHT22;44977;53.132;6.408;2023-04-23T07:10:46;10.20;99.90
59208;DHT22;44977;53.132;6.408;2023-04-23T07:15:47;10.40;99.90
59208;DHT22;44977;53.132;6.408;2023-04-23T07:20:48;10.60;99.90
59208;DHT22;44977;53.132;6.408;2023-04-23T07:25:49;10.70;99.90
59208;DHT22;44977;53.132;6.408;2023-04-23T07:30:49;10.90;99.90
59208;DHT22;44977;53.132;6.408;2023-04-23T07:35:50;11.00;99.90
59208;DHT22;44977;53.132;6.408;2023-04-23T07:40:51;11.00;99.90
59208;DHT22;44977;53.132;6.408;2023-04-23T07:45:51;11.10;99.90
59208;DHT22;44977;53.132;6.408;2023-04-23T07:50:52;11.30;99.90
59208;DHT22;44977;53.132;6.408;2023-04-23T07:55:54;11.40;99.90
59208;DHT22;44977;53.132;6.408;2023-04-23T08:00:58;11.60;99.90
59208;DHT22;44977;53.132;6.408;2023-04-23T08:05:58;11.80;99.90
59208;DHT22;44977;53.132;6.408;2023-04-23T08:10:59;12.00;99.90
59208;DHT22;44977;53.132;6.408;2023-04-23T08:16:00;12.20;99.90
59208;DHT22;44977;53.132;6.408;2023-04-23T08:21:01;12.50;99.90
59208;DHT22;44977;53.132;6.408;2023-04-23T08:26:01;12.60;99.90
59208;DHT22;44977;53.132;6.408;2023-04-23T08:31:02;12.90;99.90
59208;DHT22;44977;53.132;6.408;2023-04-23T08:36:03;13.20;99.90
59208;DHT22;44977;53.132;6.408;2023-04-23T08:41:05;13.50;99.90
59208;DHT22;44977;53.132;6.408;2023-04-23T08:46:11;13.80;99.90
59208;DHT22;44977;53.132;6.408;2023-04-23T08:51:17;14.00;99.90
59208;DHT22;44977;53.132;6.408;2023-04-23T08:56:19;14.30;99.90
59208;DHT22;44977;53.132;6.408;2023-04-23T09:01:21;14.60;99.90
59208;DHT22;44977;53.132;6.408;2023-04-23T09:06:21;14.90;99.90
59208;DHT22;44977;53.132;6.408;2023-04-23T09:11:23;15.10;99.90
59208;DHT22;44977;53.132;6.408;2023-04-23T09:16:26;15.30;99.90
59208;DHT22;44977;53.132;6.408;2023-04-23T09:21:27;15.40;99.90
59208;DHT22;44977;53.132;6.408;2023-04-23T09:26:28;15.70;99.90
59208;DHT22;44977;53.132;6.408;2023-04-23T09:31:29;16.00;99.90
59208;DHT22;44977;53.132;6.408;2023-04-23T09:36:30;16.00;99.90
59208;DHT22;44977;53.132;6.408;2023-04-23T09:41:31;16.00;99.90
59208;DHT22;44977;53.132;6.408;2023-04-23T09:46:35;16.10;99.90
59208;DHT22;44977;53.132;6.408;2023-04-23T09:51:40;16.20;99.90
59208;DHT22;44977;53.132;6.408;2023-04-23T09:56:42;16.20;99.90
59208;DHT22;44977;53.132;6.408;2023-04-23T10:01:44;16.40;99.90
59208;DHT22;44977;53.132;6.408;2023-04-23T10:06:45;16.50;99.90
59208;DHT22;44977;53.132;6.408;2023-04-23T10:11:46;16.80;99.90
59208;DHT22;44977;53.132;6.408;2023-04-23T10:16:50;17.10;99.90
59208;DHT22;44977;53.132;6.408;2023-04-23T10:21:56;17.20;99.90
59208;DHT22;44977;53.132;6.408;2023-04-23T10:26:58;17.40;99.90
59208;DHT22;44977;53.132;6.408;2023-04-23T10:32:01;17.60;99.90
59208;DHT22;44977;53.132;6.408;2023-04-23T10:37:02;17.80;99.90
59208;DHT22;44977;53.132;6.408;2023-04-23T10:42:04;18.10;99.90
59208;DHT22;44977;53.132;6.408;2023-04-23T10:47:05;18.20;99.90
59208;DHT22;44977;53.132;6.408;2023-04-23T10:52:11;18.30;99.90
59208;DHT22;44977;53.132;6.408;2023-04-23T10:57:14;18.60;99.90
59208;DHT22;44977;53.132;6.408;2023-04-23T11:02:15;18.70;99.90
59208;DHT22;44977;53.132;6.408;2023-04-23T11:07:18;18.70;99.90
59208;DHT22;44977;53.132;6.408;2023-04-23T11:22:37;18.10;97.70
59208;DHT22;44977;53.132;6.408;2023-04-23T11:27:42;18.00;98.20
59208;DHT22;44977;53.132;6.408;2023-04-23T11:32:45;18.10;98.90
59208;DHT22;44977;53.132;6.408;2023-04-23T11:37:48;18.30;95.40
59208;DHT22;44977;53.132;6.408;2023-04-23T11:42:51;18.30;92.60
59208;DHT22;44977;53.132;6.408;2023-04-23T11:47:56;18.40;93.60
59208;DHT22;44977;53.132;6.408;2023-04-23T11:52:57;18.50;91.90
59208;DHT22;44977;53.132;6.408;2023-04-23T11:57:58;18.40;90.40
59208;DHT22;44977;53.132;6.408;2023-04-23T12:03:00;18.50;92.20
59208;DHT22;44977;53.132;6.408;2023-04-23T12:08:10;18.50;89.40
59208;DHT22;44977;53.132;6.408;2023-04-23T12:13:15;18.40;90.80
59208;DHT22;44977;53.132;6.408;2023-04-23T12:18:16;18.30;90.10
59208;DHT22;44977;53.132;6.408;2023-04-23T12:23:17;18.50;90.30
59208;DHT22;44977;53.132;6.408;2023-04-23T12:28:22;18.70;89.40
59208;DHT22;44977;53.132;6.408;2023-04-23T12:33:23;18.80;85.60
59208;DHT22;44977;53.132;6.408;2023-04-23T12:38:27;18.80;84.00
59208;DHT22;44977;53.132;6.408;2023-04-23T12:43:29;18.80;82.80
59208;DHT22;44977;53.132;6.408;2023-04-23T12:48:30;18.70;81.20
59208;DHT22;44977;53.132;6.408;2023-04-23T12:53:30;18.90;82.40
59208;DHT22;44977;53.132;6.408;2023-04-23T12:58:31;19.00;78.80
59208;DHT22;44977;53.132;6.408;2023-04-23T13:03:32;19.00;76.60
59208;DHT22;44977;53.132;6.408;2023-04-23T13:08:33;18.90;75.70
59208;DHT22;44977;53.132;6.408;2023-04-23T13:13:33;18.80;75.40
59208;DHT22;44977;53.132;6.408;2023-04-23T13:18:35;18.70;74.50
59208;DHT22;44977;53.132;6.408;2023-04-23T13:23:35;18.70;74.60
59208;DHT22;44977;53.132;6.408;2023-04-23T13:28:37;18.80;75.20
59208;DHT22;44977;53.132;6.408;2023-04-23T13:33:37;18.90;75.80
59208;DHT22;44977;53.132;6.408;2023-04-23T13:38:38;19.10;75.20
59208;DHT22;44977;53.132;6.408;2023-04-23T13:43:39;19.20;73.80
59208;DHT22;44977;53.132;6.408;2023-04-23T13:48:40;19.20;73.90
59208;DHT22;44977;53.132;6.408;2023-04-23T13:53:41;19.20;72.80
59208;DHT22;44977;53.132;6.408;2023-04-23T13:58:42;19.20;71.70
59208;DHT22;44977;53.132;6.408;2023-04-23T14:03:46;19.10;70.80
59208;DHT22;44977;53.132;6.408;2023-04-23T14:08:47;19.10;73.50
59208;DHT22;44977;53.132;6.408;2023-04-23T14:13:48;19.20;74.60
59208;DHT22;44977;53.132;6.408;2023-04-23T14:18:49;19.30;72.70
59208;DHT22;44977;53.132;6.408;2023-04-23T14:28:51;19.30;71.90
59208;DHT22;44977;53.132;6.408;2023-04-23T14:33:58;19.30;71.00
59208;DHT22;44977;53.132;6.408;2023-04-23T14:38:59;19.30;71.00
59208;DHT22;44977;53.132;6.408;2023-04-23T14:44:04;19.40;71.90
59208;DHT22;44977;53.132;6.408;2023-04-23T14:49:05;19.40;72.30
59208;DHT22;44977;53.132;6.408;2023-04-23T14:54:05;19.30;70.70
59208;DHT22;44977;53.132;6.408;2023-04-23T14:59:06;19.30;70.60
59208;DHT22;44977;53.132;6.408;2023-04-23T15:04:09;19.20;68.70
59208;DHT22;44977;53.132;6.408;2023-04-23T15:09:09;19.10;68.60
59208;DHT22;44977;53.132;6.408;2023-04-23T15:14:29;18.90;68.60
59208;DHT22;44977;53.132;6.408;2023-04-23T15:19:30;18.80;68.70
59208;DHT22;44977;53.132;6.408;2023-04-23T15:24:32;18.70;70.00
59208;DHT22;44977;53.132;6.408;2023-04-23T15:29:32;18.80;70.50
59208;DHT22;44977;53.132;6.408;2023-04-23T15:34:33;18.80;70.80
59208;DHT22;44977;53.132;6.408;2023-04-23T15:39:34;18.80;70.90
59208;DHT22;44977;53.132;6.408;2023-04-23T15:44:34;18.60;70.60
59208;DHT22;44977;53.132;6.408;2023-04-23T15:49:35;18.50;72.40
59208;DHT22;44977;53.132;6.408;2023-04-23T15:54:36;18.40;72.10
59208;DHT22;44977;53.132;6.408;2023-04-23T15:59:37;18.30;72.60
59208;DHT22;44977;53.132;6.408;2023-04-23T16:04:38;18.30;74.30
59208;DHT22;44977;53.132;6.408;2023-04-23T16:09:38;18.20;72.70
59208;DHT22;44977;53.132;6.408;2023-04-23T16:14:39;18.10;73.10
59208;DHT22;44977;53.132;6.408;2023-04-23T16:19:42;18.00;70.70
59208;DHT22;44977;53.132;6.408;2023-04-23T16:24:42;17.80;72.50
59208;DHT22;44977;53.132;6.408;2023-04-23T16:29:43;17.80;73.00
59208;DHT22;44977;53.132;6.408;2023-04-23T16:34:44;17.70;73.50
59208;DHT22;44977;53.132;6.408;2023-04-23T16:39:45;17.60;74.30
59208;DHT22;44977;53.132;6.408;2023-04-23T16:44:45;17.50;75.30
59208;DHT22;44977;53.132;6.408;2023-04-23T16:49:46;17.50;75.80
59208;DHT22;44977;53.132;6.408;2023-04-23T16:54:50;17.30;76.50
59208;DHT22;44977;53.132;6.408;2023-04-23T16:59:50;17.30;77.00
59208;DHT22;44977;53.132;6.408;2023-04-23T17:04:51;17.20;78.50
59208;DHT22;44977;53.132;6.408;2023-04-23T17:09:52;17.10;79.40
59208;DHT22;44977;53.132;6.408;2023-04-23T17:14:53;17.00;80.40
59208;DHT22;44977;53.132;6.408;2023-04-23T17:19:53;17.00;82.20
59208;DHT22;44977;53.132;6.408;2023-04-23T17:24:54;16.80;82.70
59208;DHT22;44977;53.132;6.408;2023-04-23T17:29:55;16.40;85.50
59208;DHT22;44977;53.132;6.408;2023-04-23T17:34:55;16.00;92.20
59208;DHT22;44977;53.132;6.408;2023-04-23T17:39:56;15.60;99.90
59208;DHT22;44977;53.132;6.408;2023-04-23T17:44:57;15.30;99.90
59208;DHT22;44977;53.132;6.408;2023-04-23T17:49:57;15.00;99.90
59208;DHT22;44977;53.132;6.408;2023-04-23T18:00:09;14.60;99.90
59208;DHT22;44977;53.132;6.408;2023-04-23T18:05:25;14.40;99.90
59208;DHT22;44977;53.132;6.408;2023-04-23T18:10:32;14.30;99.90
59208;DHT22;44977;53.132;6.408;2023-04-23T18:15:33;14.10;99.90
59208;DHT22;44977;53.132;6.408;2023-04-23T18:20:33;14.00;99.90
59208;DHT22;44977;53.132;6.408;2023-04-23T18:25:37;14.00;99.90
59208;DHT22;44977;53.132;6.408;2023-04-23T18:30:38;13.90;99.90
59208;DHT22;44977;53.132;6.408;2023-04-23T18:35:42;13.70;99.90
59208;DHT22;44977;53.132;6.408;2023-04-23T18:40:46;13.70;99.90
59208;DHT22;44977;53.132;6.408;2023-04-23T18:45:47;13.60;99.90
59208;DHT22;44977;53.132;6.408;2023-04-23T18:50:54;13.50;99.90
59208;DHT22;44977;53.132;6.408;2023-04-23T18:55:55;13.40;99.90
59208;DHT22;44977;53.132;6.408;2023-04-23T19:00:56;13.40;99.90
59208;DHT22;44977;53.132;6.408;2023-04-23T19:05:57;13.30;99.90
59208;DHT22;44977;53.132;6.408;2023-04-23T19:10:57;13.30;99.90
59208;DHT22;44977;53.132;6.408;2023-04-23T19:15:58;13.30;99.90
59208;DHT22;44977;53.132;6.408;2023-04-23T19:20:59;13.30;99.90
59208;DHT22;44977;53.132;6.408;2023-04-23T19:26:00;13.30;99.90
59208;DHT22;44977;53.132;6.408;2023-04-23T19:31:02;13.30;99.90
59208;DHT22;44977;53.132;6.408;2023-04-23T19:36:03;13.30;99.90
59208;DHT22;44977;53.132;6.408;2023-04-23T19:41:04;13.30;99.90
59208;DHT22;44977;53.132;6.408;2023-04-23T19:46:06;13.30;99.90
59208;DHT22;44977;53.132;6.408;2023-04-23T19:51:07;13.30;99.90
59208;DHT22;44977;53.132;6.408;2023-04-23T19:56:08;13.20;99.90
59208;DHT22;44977;53.132;6.408;2023-04-23T20:01:12;13.20;99.90
59208;DHT22;44977;53.132;6.408;2023-04-23T20:06:13;13.10;99.90
59208;DHT22;44977;53.132;6.408;2023-04-23T20:11:14;13.00;99.90
59208;DHT22;44977;53.132;6.408;2023-04-23T20:16:15;13.00;99.90
59208;DHT22;44977;53.132;6.408;2023-04-23T20:21:15;13.00;99.90
59208;DHT22;44977;53.132;6.408;2023-04-23T20:26:17;12.90;99.90
59208;DHT22;44977;53.132;6.408;2023-04-23T20:31:19;12.90;99.90
59208;DHT22;44977;53.132;6.408;2023-04-23T20:36:20;12.80;99.90
59208;DHT22;44977;53.132;6.408;2023-04-23T20:41:21;12.80;99.90
59208;DHT22;44977;53.132;6.408;2023-04-23T20:46:23;12.70;99.90
59208;DHT22;44977;53.132;6.408;2023-04-23T20:51:24;12.70;99.90
59208;DHT22;44977;53.132;6.408;2023-04-23T20:56:25;12.60;99.90
59208;DHT22;44977;53.132;6.408;2023-04-23T21:01:25;12.60;99.90
59208;DHT22;44977;53.132;6.408;2023-04-23T21:06:26;12.60;99.90
59208;DHT22;44977;53.132;6.408;2023-04-23T21:11:28;12.60;99.90
59208;DHT22;44977;53.132;6.408;2023-04-23T21:16:29;12.60;99.90
59208;DHT22;44977;53.132;6.408;2023-04-23T21:21:30;12.60;99.90
59208;DHT22;44977;53.132;6.408;2023-04-23T21:26:31;12.50;99.90
59208;DHT22;44977;53.132;6.408;2023-04-23T21:36:40;12.40;99.90
59208;DHT22;44977;53.132;6.408;2023-04-23T21:41:43;12.40;99.90
59208;DHT22;44977;53.132;6.408;2023-04-23T21:46:46;12.40;99.90
59208;DHT22;44977;53.132;6.408;2023-04-23T21:51:47;12.30;99.90
59208;DHT22;44977;53.132;6.408;2023-04-23T21:56:49;12.30;99.90
59208;DHT22;44977;53.132;6.408;2023-04-23T22:01:50;12.20;99.90
59208;DHT22;44977;53.132;6.408;2023-04-23T22:06:50;12.20;99.90
59208;DHT22;44977;53.132;6.408;2023-04-23T22:11:52;12.20;99.90
59208;DHT22;44977;53.132;6.408;2023-04-23T22:16:53;12.20;99.90
59208;DHT22;44977;53.132;6.408;2023-04-23T22:21:54;12.10;99.90
59208;DHT22;44977;53.132;6.408;2023-04-23T22:26:55;12.20;99.90
59208;DHT22;44977;53.132;6.408;2023-04-23T22:31:57;12.10;99.90
59208;DHT22;44977;53.132;6.408;2023-04-23T22:36:58;12.10;99.90
59208;DHT22;44977;53.132;6.408;2023-04-23T22:41:58;12.10;99.90
59208;DHT22;44977;53.132;6.408;2023-04-23T22:46:59;12.10;99.90
59208;DHT22;44977;53.132;6.408;2023-04-23T22:52:00;12.00;99.90
59208;DHT22;44977;53.132;6.408;2023-04-23T22:57:01;12.00;99.90
59208;DHT22;44977;53.132;6.408;2023-04-23T23:02:03;12.00;99.90
59208;DHT22;44977;53.132;6.408;2023-04-23T23:07:04;11.90;99.90
59208;DHT22;44977;53.132;6.408;2023-04-23T23:12:05;11.80;99.90
59208;DHT22;44977;53.132;6.408;2023-04-23T23:17:06;11.80;99.90
59208;DHT22;44977;53.132;6.408;2023-04-23T23:22:06;11.80;99.90
59208;DHT22;44977;53.132;6.408;2023-04-23T23:27:07;11.70;99.90
59208;DHT22;44977;53.132;6.408;2023-04-23T23:32:08;11.70;99.90
59208;DHT22;44977;53.132;6.408;2023-04-23T23:37:08;11.70;99.90
59208;DHT22;44977;53.132;6.408;2023-04-23T23:42:10;11.70;99.90
59208;DHT22;44977;53.132;6.408;2023-04-23T23:47:11;11.70;99.90
59208;DHT22;44977;53.132;6.408;2023-04-23T23:52:12;11.60;99.90
59208;DHT22;44977;53.132;6.408;2023-04-23T23:57:12;11.60;99.90
